Time;durP1;ratioP1;P1;durP2;ratioP2;P2;SDS_P1;SDS_P2;PMS_P1;PMS_P2;Temp;Humidity;BMP_temperature;BMP_pressure;BME280_temperature;BME280_humidity;BME280_pressure;Samples;Min_cycle;Max_cycle;Signal;HPM_P1;HPM_P2
2021/11/15 00:01:32;;;;;;;43.95;26.62;;;;;;;-0.67;100.00;102177.88;1725777;83;21017;-85
2021/11/15 00:03:59;;;;;;;42.88;25.95;;;;;;;-0.70;100.00;102168.51;1709874;82;21081;-86
2021/11/15 00:06:26;;;;;;;41.92;25.30;;;;;;;-0.70;100.00;102168.51;1734333;82;21127;-86
2021/11/15 00:08:53;;;;;;;42.27;26.80;;;;;;;-0.69;100.00;102168.06;1733885;82;21016;-86
2021/11/15 00:11:20;;;;;;;42.27;26.57;;;;;;;-0.71;100.00;102165.52;1709868;82;21802;-86
2021/11/15 00:13:48;;;;;;;44.20;26.68;;;;;;;-0.70;100.00;102168.51;1725547;83;21108;-86
2021/11/15 00:16:15;;;;;;;42.23;25.85;;;;;;;-0.68;100.00;102166.77;1727972;83;21083;-85
2021/11/15 00:18:42;;;;;;;43.40;27.10;;;;;;;-0.66;100.00;102169.34;1693358;84;21103;-85
2021/11/15 00:21:09;;;;;;;45.35;27.60;;;;;;;-0.62;100.00;102165.91;1705441;82;21789;-84
2021/11/15 00:23:38;;;;;;;44.70;28.57;;;;;;;-0.61;100.00;102167.61;1705927;82;21672;-87
2021/11/15 00:26:05;;;;;;;45.90;28.25;;;;;;;-0.57;100.00;102169.32;1715191;82;21013;-85
2021/11/15 00:28:32;;;;;;;49.65;26.80;;;;;;;-0.56;100.00;102169.72;1735212;82;21099;-85
2021/11/15 00:30:59;;;;;;;46.83;28.30;;;;;;;-0.56;100.00;102165.87;1735288;82;21096;-85
2021/11/15 00:33:28;;;;;;;49.55;28.87;;;;;;;-0.56;100.00;102160.77;1735055;81;21087;-84
2021/11/15 00:35:55;;;;;;;50.70;28.77;;;;;;;-0.56;100.00;102154.36;1735214;81;21012;-85
2021/11/15 00:38:23;;;;;;;47.50;29.02;;;;;;;-0.56;100.00;102153.08;1735082;82;21577;-86
2021/11/15 00:40:50;;;;;;;44.35;27.17;;;;;;;-0.56;100.00;102154.80;1735163;81;21032;-86
2021/11/15 00:43:18;;;;;;;43.08;26.25;;;;;;;-0.54;100.00;102164.61;1735156;81;21818;-86
2021/11/15 00:45:46;;;;;;;41.58;26.25;;;;;;;-0.55;100.00;102168.86;1735356;82;21076;-86
2021/11/15 00:48:13;;;;;;;42.03;25.92;;;;;;;-0.54;100.00;102159.50;1735220;82;21092;-87
2021/11/15 00:50:41;;;;;;;38.13;25.88;;;;;;;-0.55;100.00;102160.34;1735234;81;21044;-87
2021/11/15 00:53:10;;;;;;;39.27;24.77;;;;;;;-0.55;100.00;102160.34;1708839;82;21139;-85
2021/11/15 00:55:37;;;;;;;37.15;22.70;;;;;;;-0.59;100.00;102163.76;1735652;82;21234;-85
2021/11/15 00:58:06;;;;;;;31.52;22.20;;;;;;;-0.63;100.00;102164.20;1735789;82;21114;-88
2021/11/15 01:00:37;;;;;;;38.60;23.95;;;;;;;-0.64;100.00;102153.54;1735608;82;21517;-85
2021/11/15 01:03:08;;;;;;;39.33;24.35;;;;;;;-0.61;100.00;102149.70;1731606;81;20993;-85
2021/11/15 01:05:39;;;;;;;41.90;26.48;;;;;;;-0.57;100.00;102141.17;1708053;82;21063;-85
2021/11/15 01:08:08;;;;;;;41.95;25.35;;;;;;;-0.55;100.00;102142.44;1735631;81;21133;-85
2021/11/15 01:10:35;;;;;;;41.40;26.73;;;;;;;-0.59;100.00;102148.41;1735291;81;20997;-86
2021/11/15 01:13:03;;;;;;;49.18;28.25;;;;;;;-0.61;100.00;102139.91;1735467;81;21458;-86
2021/11/15 01:15:32;;;;;;;40.75;26.12;;;;;;;-0.61;100.00;102134.79;1734639;81;21541;-86
2021/11/15 01:17:59;;;;;;;41.68;25.80;;;;;;;-0.61;100.00;102134.79;1725973;81;21459;-87
2021/11/15 01:20:33;;;;;;;40.83;26.68;;;;;;;-0.61;100.00;102134.79;1757614;81;21145;-86
2021/11/15 01:23:00;;;;;;;44.83;28.45;;;;;;;-0.61;100.00;102137.34;1757949;81;21045;-85
2021/11/15 01:25:27;;;;;;;39.67;27.02;;;;;;;-0.62;100.00;102130.09;1757663;81;21077;-85
2021/11/15 01:27:55;;;;;;;55.33;30.02;;;;;;;-0.63;100.00;102141.17;1756147;80;21120;-86
2021/11/15 01:30:24;;;;;;;55.08;32.30;;;;;;;-0.64;100.00;102140.33;1752020;81;21116;-85
2021/11/15 01:32:52;;;;;;;68.20;34.78;;;;;;;-0.66;100.00;102143.32;1751978;80;21158;-86
2021/11/15 01:35:22;;;;;;;58.08;32.08;;;;;;;-0.72;100.00;102136.12;1783735;80;21065;-85
2021/11/15 01:37:49;;;;;;;55.38;30.27;;;;;;;-0.80;100.00;102128.01;1783900;80;21058;-86
2021/11/15 01:40:22;;;;;;;59.08;32.10;;;;;;;-0.85;100.00;102134.02;1783183;80;20967;-86
2021/11/15 01:42:49;;;;;;;46.42;28.70;;;;;;;-0.89;100.00;102132.31;1762003;80;20995;-86
2021/11/15 01:45:23;;;;;;;50.92;31.20;;;;;;;-0.93;100.00;102133.19;1761225;80;21105;-86
2021/11/15 01:47:58;;;;;;;53.58;34.10;;;;;;;-0.97;100.00;102138.30;1779473;80;21979;-85
2021/11/15 01:50:27;;;;;;;54.67;33.00;;;;;;;-1.04;100.00;102144.29;1783587;80;21058;-86
2021/11/15 01:52:55;;;;;;;47.58;30.82;;;;;;;-1.09;100.00;102146.02;1783215;80;21010;-87
2021/11/15 01:55:25;;;;;;;51.55;30.43;;;;;;;-1.12;100.00;102156.23;1783539;80;21069;-86
2021/11/15 01:57:53;;;;;;;50.92;31.05;;;;;;;-1.16;100.00;102159.66;1761479;79;21147;-85
2021/11/15 02:00:31;;;;;;;49.38;29.55;;;;;;;-1.19;100.00;102171.16;1756956;80;21587;-85
2021/11/15 02:03:00;;;;;;;52.53;29.32;;;;;;;-1.25;100.00;102175.01;1782848;80;21107;-85
2021/11/15 02:05:28;;;;;;;43.95;27.40;;;;;;;-1.33;100.00;102163.09;1788472;80;21080;-86
2021/11/15 02:07:55;;;;;;;41.18;26.27;;;;;;;-1.34;100.00;102157.55;1788158;80;21321;-86
2021/11/15 02:10:22;;;;;;;49.50;27.30;;;;;;;-1.29;100.00;102153.27;1788830;80;21165;-84
2021/11/15 02:12:49;;;;;;;44.20;25.95;;;;;;;-1.17;100.00;102146.45;1788531;79;21033;-84
2021/11/15 02:15:17;;;;;;;54.48;29.77;;;;;;;-1.06;100.00;102144.71;1788493;80;21025;-84
2021/11/15 02:17:46;;;;;;;51.98;30.43;;;;;;;-1.03;100.00;102150.23;1786124;80;21009;-85
2021/11/15 02:20:26;;;;;;;57.15;29.45;;;;;;;-1.02;100.00;102141.72;1784813;80;21711;-85
2021/11/15 02:22:55;;;;;;;50.48;31.35;;;;;;;-0.96;100.00;102136.17;1784970;79;21139;-85
2021/11/15 02:25:26;;;;;;;55.58;32.55;;;;;;;-0.89;100.00;102137.02;1784841;79;21021;-85
2021/11/15 02:27:54;;;;;;;58.60;34.27;;;;;;;-0.90;100.00;102144.67;1784996;80;21005;-85
2021/11/15 02:30:26;;;;;;;67.22;36.53;;;;;;;-0.96;100.00;102150.23;1785050;80;21562;-85
2021/11/15 02:32:54;;;;;;;58.33;34.78;;;;;;;-0.96;100.00;102151.52;1780881;79;21108;-86
2021/11/15 02:35:24;;;;;;;65.60;37.70;;;;;;;-0.92;100.00;102145.13;1784989;80;21177;-86
2021/11/15 02:37:52;;;;;;;73.33;41.43;;;;;;;-0.86;100.00;102150.22;1785087;80;21140;-85
2021/11/15 02:40:25;;;;;;;79.03;43.20;;;;;;;-0.87;100.00;102148.08;1784804;79;21112;-85
2021/11/15 02:42:54;;;;;;;77.32;42.58;;;;;;;-0.92;100.00;102140.02;1781757;79;21001;-85
2021/11/15 02:45:25;;;;;;;80.65;43.35;;;;;;;-0.96;100.00;102142.56;1785174;79;21609;-85
2021/11/15 02:47:53;;;;;;;74.87;41.00;;;;;;;-1.04;100.00;102148.13;1785218;80;21150;-85
2021/11/15 02:50:24;;;;;;;88.35;44.75;;;;;;;-1.15;100.00;102147.28;1785425;80;21025;-85
2021/11/15 02:52:56;;;;;;;82.30;43.45;;;;;;;-1.24;100.00;102162.66;1785364;79;21049;-84
2021/11/15 02:55:25;;;;;;;68.10;38.17;;;;;;;-1.36;100.00;102169.91;1784771;79;21032;-85
2021/11/15 02:57:53;;;;;;;80.38;41.05;;;;;;;-1.48;100.00;102164.34;1756165;80;21665;-84
2021/11/15 03:00:27;;;;;;;78.57;42.08;;;;;;;-1.57;100.00;102151.15;1785313;80;21503;-85
2021/11/15 03:02:57;;;;;;;77.95;39.45;;;;;;;-1.67;100.00;102154.14;1784897;79;21502;-84
2021/11/15 03:05:28;;;;;;;69.00;38.25;;;;;;;-1.80;100.00;102148.16;1785102;80;21049;-84
2021/11/15 03:07:56;;;;;;;68.67;36.45;;;;;;;-1.89;100.00;102152.41;1784444;79;21728;-85
2021/11/15 03:10:24;;;;;;;65.28;36.38;;;;;;;-1.94;100.00;102162.18;1756690;80;21538;-85
2021/11/15 03:12:52;;;;;;;66.10;34.23;;;;;;;-1.98;100.00;102159.61;1776886;79;21158;-85
2021/11/15 03:15:38;;;;;;;63.05;34.33;;;;;;;-2.00;100.00;102154.95;1705019;81;21048;-85
2021/11/15 03:18:10;;;;;;;64.03;35.03;;;;;;;-1.98;100.00;102162.17;1701487;82;21008;-85
2021/11/15 03:20:46;;;;;;;63.05;34.85;;;;;;;-1.98;100.00;102169.83;1705197;82;21542;-84
2021/11/15 03:23:17;;;;;;;65.05;35.85;;;;;;;-2.02;100.00;102170.25;1735637;81;21098;-84
2021/11/15 03:25:46;;;;;;;65.55;34.92;;;;;;;-2.03;100.00;102170.25;1705247;82;21102;-83
2021/11/15 03:28:18;;;;;;;66.33;38.20;;;;;;;-2.06;100.00;102173.66;1735605;81;21992;-84
2021/11/15 03:30:46;;;;;;;61.58;34.20;;;;;;;-2.08;100.00;102169.80;1735434;81;21549;-84
2021/11/15 03:33:14;;;;;;;64.07;35.33;;;;;;;-2.08;100.00;102166.41;1730642;81;21541;-84
2021/11/15 03:35:42;;;;;;;62.03;34.35;;;;;;;-2.07;100.00;102166.40;1705027;82;21044;-85
2021/11/15 03:38:10;;;;;;;62.03;33.42;;;;;;;-2.06;100.00;102163.44;1735745;81;21127;-85
2021/11/15 03:40:38;;;;;;;58.00;34.18;;;;;;;-2.06;100.00;102159.61;1735587;82;21068;-85
2021/11/15 03:43:07;;;;;;;58.60;32.15;;;;;;;-2.06;100.00;102162.17;1735590;82;21005;-84
2021/11/15 03:45:36;;;;;;;64.35;34.20;;;;;;;-2.08;100.00;102165.13;1735550;81;21000;-84
2021/11/15 03:48:06;;;;;;;67.97;32.55;;;;;;;-2.13;100.00;102165.12;1735282;81;21000;-85
2021/11/15 03:50:34;;;;;;;70.97;36.25;;;;;;;-2.22;100.00;102164.68;1735710;81;22007;-84
2021/11/15 03:53:03;;;;;;;70.28;34.00;;;;;;;-2.28;100.00;102174.84;1735443;81;21056;-85
2021/11/15 03:55:30;;;;;;;64.75;31.40;;;;;;;-2.32;100.00;102183.34;1735632;81;21103;-84
2021/11/15 03:57:57;;;;;;;69.62;33.50;;;;;;;-2.35;100.00;102179.50;1735298;82;21592;-83
2021/11/15 04:00:29;;;;;;;64.90;32.38;;;;;;;-2.36;100.00;102186.72;1704973;81;21004;-83
2021/11/15 04:03:03;;;;;;;59.93;29.12;;;;;;;-2.36;100.00;102186.72;1731624;82;21072;-84
2021/11/15 04:05:37;;;;;;;50.43;27.65;;;;;;;-2.41;100.00;102183.31;1733037;81;21525;-84
2021/11/15 04:08:07;;;;;;;47.08;26.02;;;;;;;-2.44;100.00;102180.73;1735343;82;21497;-84
2021/11/15 04:10:41;;;;;;;58.02;30.17;;;;;;;-2.44;100.00;102183.28;1735676;81;21065;-85
2021/11/15 04:13:16;;;;;;;58.30;30.95;;;;;;;-2.44;100.00;102192.22;1735661;81;21075;-84
2021/11/15 04:15:47;;;;;;;56.92;30.15;;;;;;;-2.46;100.00;102188.39;1728715;81;21493;-84
2021/11/15 04:18:17;;;;;;;64.80;31.90;;;;;;;-2.46;100.00;102190.10;1758176;80;21057;-85
2021/11/15 04:20:44;;;;;;;59.70;30.82;;;;;;;-2.48;100.00;102186.25;1759888;81;21320;-85
2021/11/15 04:23:12;;;;;;;60.55;31.62;;;;;;;-2.48;100.00;102193.06;1737113;81;21610;-84
2021/11/15 04:25:40;;;;;;;60.40;32.63;;;;;;;-2.49;100.00;102198.59;1755669;81;21515;-84
2021/11/15 04:28:08;;;;;;;58.87;31.23;;;;;;;-2.50;100.00;102205.82;1760221;81;21170;-85
2021/11/15 04:30:36;;;;;;;51.00;30.52;;;;;;;-2.52;100.00;102206.23;1759826;81;21069;-85
2021/11/15 04:33:08;;;;;;;53.78;30.02;;;;;;;-2.52;100.00;102217.70;1764103;80;21018;-84
2021/11/15 04:35:37;;;;;;;55.60;30.75;;;;;;;-2.53;100.00;102210.89;1755555;80;21053;-83
2021/11/15 04:38:06;;;;;;;49.23;28.02;;;;;;;-2.51;100.00;102210.48;1726173;81;21003;-82
2021/11/15 04:40:35;;;;;;;226.20;41.08;;;;;;;-2.51;100.00;102212.16;1732201;81;21196;-81
2021/11/15 04:43:02;;;;;;;166.43;35.85;;;;;;;-2.34;100.00;102211.83;1749584;80;21124;-88
2021/11/15 04:45:31;;;;;;;102.82;33.23;;;;;;;-1.86;100.00;102214.97;1732183;81;21535;-86
2021/11/15 04:47:59;;;;;;;54.67;30.60;;;;;;;-1.58;100.00;102214.59;1749809;80;21056;-85
2021/11/15 04:50:26;;;;;;;60.95;30.40;;;;;;;-1.49;100.00;102216.32;1747856;80;21035;-85
2021/11/15 04:52:55;;;;;;;89.28;30.85;;;;;;;-1.47;100.00;102209.48;1754414;80;21082;-84
2021/11/15 04:55:23;;;;;;;92.62;36.60;;;;;;;-1.38;100.00;102206.10;1753048;81;21033;-84
2021/11/15 04:57:53;;;;;;;88.37;34.08;;;;;;;-1.02;100.00;102205.23;1749849;81;21063;-83
2021/11/15 05:00:27;;;;;;;72.97;33.18;;;;;;;-0.68;100.00;102214.11;1748505;82;21033;-82
2021/11/15 05:02:53;;;;;;;79.62;35.90;;;;;;;-0.43;100.00;102220.88;1748605;81;21486;-82
2021/11/15 05:05:22;;;;;;;81.25;36.25;;;;;;;-0.28;100.00;102227.22;1749262;82;21194;-83
2021/11/15 05:07:53;;;;;;;72.55;33.95;;;;;;;-0.20;100.00;102225.92;1749424;82;21045;-82
2021/11/15 05:10:26;;;;;;;79.25;35.17;;;;;;;-0.11;100.00;102230.14;1731909;80;21075;-84
2021/11/15 05:12:56;;;;;;;66.07;32.63;;;;;;;0.03;100.00;102230.08;1742146;82;21042;-84
2021/11/15 05:15:25;;;;;;;54.90;32.42;;;;;;;0.20;100.00;102235.10;1739688;81;21038;-83
2021/11/15 05:17:52;;;;;;;50.38;32.42;;;;;;;0.31;100.00;102238.46;1751265;80;21984;-83
2021/11/15 05:20:21;;;;;;;53.00;31.17;;;;;;;0.27;100.00;102237.63;1765335;81;21049;-82
2021/11/15 05:22:50;;;;;;;49.70;30.85;;;;;;;0.12;100.00;102244.97;1733772;81;21022;-83
2021/11/15 05:25:19;;;;;;;51.80;29.05;;;;;;;-0.08;100.00;102245.06;1756892;81;21060;-83
2021/11/15 05:27:47;;;;;;;52.38;29.82;;;;;;;-0.25;100.00;102243.86;1753174;81;21052;-84
2021/11/15 05:30:17;;;;;;;50.12;30.37;;;;;;;-0.42;100.00;102237.50;1785067;80;21143;-83
2021/11/15 05:32:47;;;;;;;63.20;30.37;;;;;;;-0.57;100.00;102243.53;1786739;80;21005;-83
2021/11/15 05:35:14;;;;;;;51.25;31.33;;;;;;;-0.73;100.00;102235.02;1754685;81;21020;-82
2021/11/15 05:37:41;;;;;;;55.65;30.35;;;;;;;-0.83;100.00;102241.00;1759583;81;21131;-82
2021/11/15 05:40:10;;;;;;;56.40;29.70;;;;;;;-0.91;100.00;102235.04;1742036;81;21518;-83
2021/11/15 05:42:37;;;;;;;53.00;29.15;;;;;;;-0.95;100.00;102249.54;1742040;81;21645;-83
2021/11/15 05:45:07;;;;;;;52.48;30.70;;;;;;;-0.97;100.00;102248.27;1757960;80;21118;-83
2021/11/15 05:47:34;;;;;;;52.67;28.77;;;;;;;-0.98;100.00;102253.39;1750776;81;21671;-84
2021/11/15 05:50:04;;;;;;;49.10;29.37;;;;;;;-1.01;100.00;102260.65;1751033;81;21094;-83
2021/11/15 05:52:39;;;;;;;52.27;29.53;;;;;;;-1.04;100.00;102265.75;1772078;80;21610;-84
2021/11/15 05:55:04;;;;;;;48.53;30.67;;;;;;;-1.06;100.00;102269.17;1752583;80;21135;-84
2021/11/15 05:57:31;;;;;;;52.65;31.55;;;;;;;-1.08;100.00;102279.38;1773641;80;21192;-83
2021/11/15 05:59:59;;;;;;;51.90;30.23;;;;;;;-1.09;100.00;102276.41;1736133;81;21026;-83
2021/11/15 06:02:26;;;;;;;56.30;31.15;;;;;;;-1.09;100.00;102287.92;1713194;80;21049;-83
2021/11/15 06:04:54;;;;;;;48.13;31.73;;;;;;;-1.09;100.00;102281.53;1742530;80;21070;-83
2021/11/15 06:07:21;;;;;;;46.15;30.60;;;;;;;-1.07;100.00;102288.75;1720987;82;21086;-84
2021/11/15 06:09:48;;;;;;;48.35;31.20;;;;;;;-1.04;100.00;102291.33;1753225;81;21021;-84
2021/11/15 06:12:17;;;;;;;56.42;32.60;;;;;;;-1.00;100.00;102295.57;1747535;81;21023;-83
2021/11/15 06:14:44;;;;;;;49.03;32.28;;;;;;;-0.98;100.00;102287.48;1726642;81;21044;-83
2021/11/15 06:17:10;;;;;;;46.37;31.05;;;;;;;-0.93;100.00;102286.64;1741698;81;21321;-83
2021/11/15 06:19:38;;;;;;;48.45;31.05;;;;;;;-0.88;100.00;102283.65;1767069;81;21148;-83
2021/11/15 06:22:05;;;;;;;52.88;31.37;;;;;;;-0.81;100.00;102293.02;1735490;81;21016;-83
2021/11/15 06:24:33;;;;;;;63.98;35.88;;;;;;;-0.77;100.00;102286.19;1749956;79;21140;-84
2021/11/15 06:27:01;;;;;;;66.33;37.90;;;;;;;-0.71;100.00;102284.90;1738892;82;21039;-83
2021/11/15 06:29:29;;;;;;;64.22;36.63;;;;;;;-0.67;100.00;102287.45;1708126;81;21049;-83
2021/11/15 06:31:57;;;;;;;61.05;34.98;;;;;;;-0.62;100.00;102287.45;1748004;81;21080;-85
2021/11/15 06:34:24;;;;;;;55.73;32.88;;;;;;;-0.56;100.00;102295.55;1766575;79;21664;-83
2021/11/15 06:36:51;;;;;;;59.35;34.65;;;;;;;-0.52;100.00;102295.98;1740695;81;21032;-82
2021/11/15 06:39:22;;;;;;;52.30;33.23;;;;;;;-0.48;100.00;102289.99;1756531;81;21017;-83
2021/11/15 06:41:48;;;;;;;58.10;33.13;;;;;;;-0.41;100.00;102293.41;1737511;81;21071;-84
2021/11/15 06:44:17;;;;;;;56.35;31.75;;;;;;;-0.36;100.00;102291.23;1764315;79;21172;-84
2021/11/15 06:46:44;;;;;;;54.30;34.67;;;;;;;-0.26;100.00;102295.05;1767434;81;21122;-84
2021/11/15 06:49:12;;;;;;;56.95;34.35;;;;;;;-0.16;100.00;102292.89;1767870;79;21607;-84
2021/11/15 06:51:39;;;;;;;52.48;32.38;;;;;;;-0.10;100.00;102299.27;1767682;79;21020;-85
2021/11/15 06:54:06;;;;;;;43.28;27.73;;;;;;;-0.06;100.00;102303.54;1753310;80;21175;-84
2021/11/15 06:56:34;;;;;;;38.70;26.05;;;;;;;-0.02;100.00;102300.53;1753301;79;21114;-84
2021/11/15 06:59:02;;;;;;;43.75;27.87;;;;;;;0.02;100.00;102306.05;1763059;79;21036;-86
2021/11/15 07:01:29;;;;;;;42.85;27.42;;;;;;;0.09;100.00;102307.73;1704341;81;21185;-85
2021/11/15 07:04:04;;;;;;;45.33;28.98;;;;;;;0.13;100.00;102311.13;1747683;79;21056;-85
2021/11/15 07:06:31;;;;;;;42.70;28.12;;;;;;;0.17;100.00;102319.24;1744607;80;21031;-86
2021/11/15 07:08:57;;;;;;;43.13;27.55;;;;;;;0.20;100.00;102319.66;1764435;79;21576;-86
2021/11/15 07:11:24;;;;;;;43.52;28.75;;;;;;;0.23;100.00;102324.78;1764261;81;21462;-85
2021/11/15 07:13:52;;;;;;;44.60;28.07;;;;;;;0.25;100.00;102317.91;1733881;81;21106;-85
2021/11/15 07:16:21;;;;;;;43.20;27.87;;;;;;;0.29;100.00;102308.09;1725497;79;21000;-86
2021/11/15 07:18:52;;;;;;;42.48;28.02;;;;;;;0.35;100.00;102323.87;1743131;81;20945;-84
2021/11/15 07:21:20;;;;;;;45.50;28.65;;;;;;;0.36;100.00;102327.70;1739905;81;21091;-84
2021/11/15 07:23:48;;;;;;;41.05;28.35;;;;;;;0.42;100.00;102334.06;1764505;81;21446;-85
2021/11/15 07:26:18;;;;;;;40.38;28.05;;;;;;;0.44;100.00;102323.38;1678513;81;21063;-85
2021/11/15 07:28:46;;;;;;;41.48;26.87;;;;;;;0.51;100.00;102329.34;1764180;81;21639;-85
2021/11/15 07:31:13;;;;;;;35.65;24.98;;;;;;;0.57;100.00;102336.12;1765884;81;21373;-85
2021/11/15 07:33:40;;;;;;;37.50;25.30;;;;;;;0.61;100.00;102338.66;1764394;79;21133;-85
2021/11/15 07:36:08;;;;;;;35.10;23.67;;;;;;;0.67;100.00;102339.50;1730221;81;22145;-86
2021/11/15 07:38:35;;;;;;;35.40;24.47;;;;;;;0.72;100.00;102339.88;1709188;81;21108;-86
2021/11/15 07:41:03;;;;;;;33.42;23.35;;;;;;;0.75;100.00;102337.75;1759987;80;21117;-84
2021/11/15 07:43:30;;;;;;;34.83;23.77;;;;;;;0.84;100.00;102340.66;1759734;80;21078;-84
2021/11/15 07:45:59;;;;;;;94.03;23.47;;;;;;;1.01;100.00;102337.55;1734105;80;21049;-83
2021/11/15 07:48:28;;;;;;;35.78;24.47;;;;;;;1.15;100.00;102338.74;1756935;80;21065;-84
2021/11/15 07:50:57;;;;;;;57.85;24.23;;;;;;;1.28;100.00;102347.20;1781759;80;21575;-83
2021/11/15 07:53:30;;;;;;;34.70;23.12;;;;;;;1.36;100.00;102347.95;1780034;79;21067;-84
2021/11/15 07:55:58;;;;;;;36.93;22.67;;;;;;;1.49;100.00;102349.14;1744108;81;21083;-84
2021/11/15 07:58:26;;;;;;;39.90;23.02;;;;;;;1.62;100.00;102345.58;1761445;79;21120;-89
2021/11/15 08:00:53;;;;;;;53.83;23.98;;;;;;;1.72;100.00;102350.22;1763323;79;21838;-92
2021/11/15 08:03:20;;;;;;;34.35;21.20;;;;;;;1.79;100.00;102349.28;1710250;82;21044;-91
2021/11/15 08:05:49;;;;;;;38.20;20.50;;;;;;;1.85;100.00;102351.78;1754784;80;21469;-91
2021/11/15 08:08:16;;;;;;;48.90;22.32;;;;;;;1.99;100.00;102341.77;1794013;79;21726;-90
2021/11/15 08:10:43;;;;;;;34.83;21.60;;;;;;;2.14;100.00;102348.02;1779108;80;21506;-89
2021/11/15 08:13:10;;;;;;;43.40;22.48;;;;;;;2.35;100.00;102339.64;1727161;81;21065;-89
2021/11/15 08:15:37;;;;;;;37.00;21.37;;;;;;;2.51;100.00;102345.41;1727308;81;21083;-89
2021/11/15 08:18:05;;;;;;;31.45;20.80;;;;;;;2.63;100.00;102339.25;1733540;81;21088;-96
2021/11/15 08:20:38;;;;;;;35.43;24.02;;;;;;;2.74;100.00;102348.96;1704672;81;21086;-93
2021/11/15 08:23:14;;;;;;;29.52;21.73;;;;;;;2.89;100.00;102345.29;1736033;80;21057;-92
2021/11/15 08:26:22;;;;;;;33.38;21.35;;;;;;;2.98;100.00;102348.18;1741489;80;21017;-95
2021/11/15 08:28:49;;;;;;;31.50;21.73;;;;;;;3.00;100.00;102347.73;1725371;80;21037;-95
2021/11/15 08:31:17;;;;;;;35.68;21.25;;;;;;;3.09;100.00;102355.28;1763581;78;20962;-87
2021/11/15 08:33:44;;;;;;;24.12;18.87;;;;;;;3.19;100.00;102366.72;1754203;78;21093;-96
2021/11/15 08:36:12;;;;;;;30.35;21.17;;;;;;;3.31;100.00;102361.39;1795919;78;21244;-93
2021/11/15 08:38:50;;;;;;;27.52;20.43;;;;;;;3.41;100.00;102356.47;1777969;78;21009;-94
2021/11/15 08:41:23;;;;;;;33.05;21.95;;;;;;;3.50;100.00;102359.77;1761699;80;21159;-86
2021/11/15 08:43:52;;;;;;;28.83;20.92;;;;;;;3.50;100.00;102359.77;1707352;83;21030;-92
2021/11/15 08:46:23;;;;;;;28.83;20.27;;;;;;;3.55;100.00;102355.41;1720884;81;21030;-90
2021/11/15 08:48:50;;;;;;;27.35;20.17;;;;;;;3.60;100.00;102352.30;1719430;81;21324;-91
2021/11/15 08:51:18;;;;;;;28.10;20.60;;;;;;;3.68;100.00;102346.56;1756772;81;21092;-91
2021/11/15 08:53:49;;;;;;;28.77;19.50;;;;;;;3.74;100.00;102344.32;1729683;81;21068;-86
2021/11/15 08:56:20;;;;;;;23.57;18.75;;;;;;;3.83;100.00;102349.31;1750982;81;21393;-90
2021/11/15 08:58:47;;;;;;;26.42;18.92;;;;;;;3.93;100.00;102359.83;1759587;81;21116;-88
2021/11/15 09:01:17;;;;;;;28.95;19.48;;;;;;;4.01;100.00;102354.54;1767137;81;21154;-90
2021/11/15 09:03:47;;;;;;;23.85;17.12;;;;;;;4.05;100.00;102344.56;1710715;82;20990;-88
2021/11/15 09:06:16;;;;;;;27.30;16.87;;;;;;;4.08;100.00;102347.09;1723156;81;21127;-88
2021/11/15 09:08:45;;;;;;;23.95;17.95;;;;;;;4.13;100.00;102343.13;1769128;81;21040;-88
2021/11/15 09:11:14;;;;;;;25.45;17.73;;;;;;;4.20;100.00;102345.16;1740217;81;21107;-91
2021/11/15 09:13:44;;;;;;;23.50;16.65;;;;;;;4.27;100.00;102345.43;1769269;81;21125;-90
